Time;durP1;ratioP1;P1;durP2;ratioP2;P2;SDS_P1;SDS_P2;PMS_P1;PMS_P2;Temp;Humidity;BMP_temperature;BMP_pressure;BME280_temperature;BME280_humidity;BME280_pressure;Samples;Min_cycle;Max_cycle;Signal;HPM_P1;HPM_P2
2023/04/04 00:00:38;;;;;;;2.20;2.00;;;;;;;;;;5098110;28;20234;-67
2023/04/04 00:03:07;;;;;;;2.63;2.43;;;;;;;;;;5097452;28;20668;-67
2023/04/04 00:05:35;;;;;;;2.40;2.20;;;;;;;;;;5098010;28;20209;-68
2023/04/04 00:08:03;;;;;;;2.60;2.40;;;;;;;;;;5098318;28;20213;-67
2023/04/04 00:10:31;;;;;;;3.73;2.43;;;;;;;;;;5097927;28;20252;-67
2023/04/04 00:13:01;;;;;;;2.37;2.17;;;;;;;;;;5098110;28;20664;-67
2023/04/04 00:15:30;;;;;;;3.43;2.13;;;;;;;;;;5098803;28;20229;-67
2023/04/04 00:17:58;;;;;;;2.83;2.40;;;;;;;;;;5098054;28;20692;-67
2023/04/04 00:20:26;;;;;;;2.30;2.13;;;;;;;;;;5097737;28;20236;-67
2023/04/04 00:22:54;;;;;;;2.73;2.10;;;;;;;;;;5098138;28;20237;-67
2023/04/04 00:25:22;;;;;;;2.30;2.10;;;;;;;;;;5097798;28;20718;-67
2023/04/04 00:27:50;;;;;;;4.83;2.20;;;;;;;;;;5098097;28;20201;-67
2023/04/04 00:30:19;;;;;;;2.90;2.70;;;;;;;;;;5097170;28;20688;-67
2023/04/04 00:32:48;;;;;;;3.67;2.20;;;;;;;;;;5085695;28;20205;-67
2023/04/04 00:35:16;;;;;;;2.00;1.80;;;;;;;;;;5097034;28;20626;-67
2023/04/04 00:37:44;;;;;;;2.60;2.30;;;;;;;;;;5077694;28;20209;-67
2023/04/04 00:40:12;;;;;;;1.97;1.83;;;;;;;;;;5088167;28;20263;-67
2023/04/04 00:42:40;;;;;;;4.43;2.57;;;;;;;;;;5097562;28;20255;-67
2023/04/04 00:45:08;;;;;;;2.20;2.10;;;;;;;;;;5097583;28;20745;-67
2023/04/04 00:47:38;;;;;;;2.70;2.50;;;;;;;;;;5097455;28;20209;-67
2023/04/04 00:50:07;;;;;;;3.77;2.63;;;;;;;;;;5097444;28;20291;-67
2023/04/04 00:52:36;;;;;;;2.90;2.23;;;;;;;;;;5097560;28;20213;-67
2023/04/04 00:55:04;;;;;;;2.73;2.00;;;;;;;;;;5097525;28;20221;-67
2023/04/04 00:57:33;;;;;;;2.47;2.27;;;;;;;;;;5097761;28;20202;-67
2023/04/04 01:00:03;;;;;;;2.07;1.83;;;;;;;;;;5097379;28;20234;-67
2023/04/04 01:02:31;;;;;;;5.33;2.20;;;;;;;;;;5097348;28;20213;-67
2023/04/04 01:05:00;;;;;;;2.13;1.93;;;;;;;;;;5097243;28;20202;-67
2023/04/04 01:07:28;;;;;;;2.60;2.37;;;;;;;;;;5097360;28;20202;-67
2023/04/04 01:09:56;;;;;;;2.23;2.07;;;;;;;;;;5097483;28;20229;-66
2023/04/04 01:12:25;;;;;;;3.03;2.37;;;;;;;;;;5097385;28;20202;-66
2023/04/04 01:14:53;;;;;;;2.40;2.20;;;;;;;;;;5098951;28;20491;-66
2023/04/04 01:17:21;;;;;;;3.97;2.00;;;;;;;;;;5099809;28;20210;-67
2023/04/04 01:19:53;;;;;;;3.27;2.13;;;;;;;;;;5087785;28;20244;-66
2023/04/04 01:22:23;;;;;;;2.93;1.93;;;;;;;;;;5101020;28;20201;-67
2023/04/04 01:24:51;;;;;;;8.43;6.00;;;;;;;;;;5101316;28;20230;-67
2023/04/04 01:27:21;;;;;;;10.47;5.40;;;;;;;;;;5101257;28;20213;-67
2023/04/04 01:29:49;;;;;;;2.50;2.30;;;;;;;;;;5100892;28;20286;-66
2023/04/04 01:32:19;;;;;;;2.30;2.10;;;;;;;;;;5091415;28;20209;-66
2023/04/04 01:34:52;;;;;;;2.70;2.50;;;;;;;;;;5096430;28;20264;-67
2023/04/04 01:37:23;;;;;;;2.07;1.90;;;;;;;;;;5091161;28;20284;-66
2023/04/04 01:39:53;;;;;;;2.73;2.23;;;;;;;;;;5088579;28;20218;-66
2023/04/04 01:42:23;;;;;;;3.57;2.33;;;;;;;;;;5100831;28;20237;-66
2023/04/04 01:44:54;;;;;;;2.83;2.07;;;;;;;;;;5100884;28;20212;-66
2023/04/04 01:47:23;;;;;;;2.17;1.97;;;;;;;;;;5088352;28;20217;-66
2023/04/04 01:49:52;;;;;;;2.43;2.23;;;;;;;;;;5092009;28;20233;-66
2023/04/04 01:52:20;;;;;;;2.70;2.27;;;;;;;;;;5096840;28;20209;-66
2023/04/04 01:54:48;;;;;;;3.33;2.20;;;;;;;;;;5100407;28;20268;-66
2023/04/04 01:57:16;;;;;;;3.20;2.40;;;;;;;;;;5100019;28;20215;-66
2023/04/04 01:59:46;;;;;;;3.20;1.83;;;;;;;;;;5100085;28;20221;-67
2023/04/04 02:02:14;;;;;;;1.90;1.80;;;;;;;;;;5099802;28;20202;-66
2023/04/04 02:04:42;;;;;;;2.53;2.13;;;;;;;;;;5089882;28;20653;-67
2023/04/04 02:07:10;;;;;;;2.43;2.13;;;;;;;;;;5099982;28;20676;-67
2023/04/04 02:09:38;;;;;;;2.83;2.30;;;;;;;;;;5100205;28;20727;-67
2023/04/04 02:12:06;;;;;;;2.90;2.33;;;;;;;;;;5100815;28;20228;-66
2023/04/04 02:14:34;;;;;;;2.20;2.00;;;;;;;;;;5100044;28;20306;-67
2023/04/04 02:17:04;;;;;;;3.23;2.07;;;;;;;;;;5099734;28;20235;-67
2023/04/04 02:19:32;;;;;;;3.23;2.37;;;;;;;;;;5099976;28;20226;-66
2023/04/04 02:22:00;;;;;;;3.37;2.30;;;;;;;;;;5100132;28;20210;-66
2023/04/04 02:24:28;;;;;;;2.43;2.23;;;;;;;;;;5099493;28;20238;-67
2023/04/04 02:26:56;;;;;;;5.53;2.47;;;;;;;;;;5099559;28;20206;-66
2023/04/04 02:29:24;;;;;;;5.47;2.27;;;;;;;;;;5099519;28;20229;-66
2023/04/04 02:31:52;;;;;;;2.27;2.07;;;;;;;;;;5099310;28;20212;-66
2023/04/04 02:34:21;;;;;;;2.53;2.20;;;;;;;;;;5099327;28;20236;-66
2023/04/04 02:36:49;;;;;;;3.10;2.30;;;;;;;;;;5099601;28;20229;-66
2023/04/04 02:39:17;;;;;;;2.60;2.13;;;;;;;;;;5097776;28;20221;-66
2023/04/04 02:41:46;;;;;;;3.83;2.10;;;;;;;;;;5086595;28;20209;-66
2023/04/04 02:44:14;;;;;;;1.90;1.80;;;;;;;;;;5099342;28;20680;-66
2023/04/04 02:46:42;;;;;;;2.57;2.37;;;;;;;;;;5087892;28;20209;-66
2023/04/04 02:49:11;;;;;;;2.17;1.90;;;;;;;;;;5099378;28;20606;-66
2023/04/04 02:51:40;;;;;;;2.67;2.00;;;;;;;;;;5099546;28;20229;-66
2023/04/04 02:54:08;;;;;;;2.30;1.93;;;;;;;;;;5099825;28;20211;-66
2023/04/04 02:56:37;;;;;;;2.80;1.90;;;;;;;;;;5099520;28;20284;-67
2023/04/04 02:59:05;;;;;;;2.13;1.93;;;;;;;;;;5085275;28;20233;-66
2023/04/04 03:01:33;;;;;;;3.17;2.43;;;;;;;;;;5098978;28;20236;-66
2023/04/04 03:04:01;;;;;;;2.87;1.93;;;;;;;;;;5099133;28;20201;-66
2023/04/04 03:06:31;;;;;;;2.00;1.80;;;;;;;;;;5099381;28;20232;-66
2023/04/04 03:09:03;;;;;;;3.57;2.03;;;;;;;;;;5098862;28;20237;-66
2023/04/04 03:11:31;;;;;;;2.53;2.30;;;;;;;;;;5099080;28;20206;-66
2023/04/04 03:13:59;;;;;;;2.40;2.20;;;;;;;;;;5098726;28;20670;-66
2023/04/04 03:16:28;;;;;;;2.13;1.93;;;;;;;;;;5098767;28;20261;-66
2023/04/04 03:18:56;;;;;;;2.70;2.40;;;;;;;;;;5099037;28;20259;-66
2023/04/04 03:21:24;;;;;;;2.63;2.03;;;;;;;;;;5098694;28;20201;-66
2023/04/04 03:23:52;;;;;;;2.53;2.20;;;;;;;;;;5098719;28;20296;-66
2023/04/04 03:26:22;;;;;;;3.80;2.37;;;;;;;;;;5098762;28;20692;-66
2023/04/04 03:28:49;;;;;;;1.90;1.80;;;;;;;;;;5098983;28;20233;-66
2023/04/04 03:31:17;;;;;;;2.50;1.93;;;;;;;;;;5098153;28;20229;-66
2023/04/04 03:33:46;;;;;;;6.10;2.27;;;;;;;;;;5098944;28;20206;-66
2023/04/04 03:36:14;;;;;;;2.03;1.87;;;;;;;;;;5098137;28;20222;-66
2023/04/04 03:38:42;;;;;;;1.97;1.83;;;;;;;;;;5098303;28;20209;-66
2023/04/04 03:41:10;;;;;;;2.20;2.00;;;;;;;;;;5097327;28;20750;-66
2023/04/04 03:43:39;;;;;;;2.73;2.10;;;;;;;;;;5098339;28;20644;-66
2023/04/04 03:46:07;;;;;;;2.23;2.03;;;;;;;;;;5098292;28;20204;-66
2023/04/04 03:48:36;;;;;;;2.43;1.80;;;;;;;;;;5098230;28;20240;-66
2023/04/04 03:51:04;;;;;;;3.67;2.07;;;;;;;;;;5098187;28;20230;-66
2023/04/04 03:53:34;;;;;;;2.13;1.93;;;;;;;;;;5098449;28;20233;-66
2023/04/04 03:56:02;;;;;;;1.83;1.60;;;;;;;;;;5098041;28;20236;-66
2023/04/04 03:58:30;;;;;;;2.37;1.70;;;;;;;;;;5098119;28;20619;-66
2023/04/04 04:01:00;;;;;;;3.03;2.37;;;;;;;;;;5098025;28;20257;-66
2023/04/04 04:03:28;;;;;;;2.63;2.20;;;;;;;;;;5098118;28;20250;-66
2023/04/04 04:05:56;;;;;;;2.00;1.83;;;;;;;;;;5098434;28;20661;-66
2023/04/04 04:08:24;;;;;;;1.70;1.60;;;;;;;;;;5098073;28;20594;-66
2023/04/04 04:10:52;;;;;;;2.20;2.00;;;;;;;;;;5097882;28;20328;-69
2023/04/04 04:13:20;;;;;;;2.97;2.03;;;;;;;;;;5097957;28;20210;-68
2023/04/04 04:15:48;;;;;;;2.27;2.17;;;;;;;;;;5089188;28;20234;-67
2023/04/04 04:18:17;;;;;;;1.90;1.80;;;;;;;;;;5094520;28;20232;-69
2023/04/04 04:20:45;;;;;;;2.33;2.13;;;;;;;;;;5097928;28;20322;-69
2023/04/04 04:23:13;;;;;;;2.20;1.90;;;;;;;;;;5097824;28;20213;-69
2023/04/04 04:25:41;;;;;;;2.80;2.13;;;;;;;;;;5079433;28;20198;-69
2023/04/04 04:28:09;;;;;;;2.03;1.83;;;;;;;;;;5091469;28;20205;-70
2023/04/04 04:30:37;;;;;;;2.77;2.00;;;;;;;;;;5092526;28;20221;-71
2023/04/04 04:33:06;;;;;;;2.17;1.93;;;;;;;;;;5097510;28;20239;-71
2023/04/04 04:35:37;;;;;;;3.97;2.07;;;;;;;;;;5097292;28;20557;-72
2023/04/04 04:38:06;;;;;;;2.57;2.27;;;;;;;;;;5082265;28;20632;-71
2023/04/04 04:40:34;;;;;;;2.23;2.03;;;;;;;;;;5091310;28;20275;-71
2023/04/04 04:43:02;;;;;;;3.17;2.93;;;;;;;;;;5086731;28;20264;-71
2023/04/04 04:45:30;;;;;;;5.73;2.37;;;;;;;;;;5097443;28;20211;-71
2023/04/04 04:47:58;;;;;;;5.50;2.23;;;;;;;;;;5085955;28;20218;-71
2023/04/04 04:50:26;;;;;;;3.27;2.10;;;;;;;;;;5101748;28;20256;-72
2023/04/04 04:52:55;;;;;;;3.53;2.10;;;;;;;;;;5101272;28;20296;-72
2023/04/04 04:55:23;;;;;;;2.50;2.30;;;;;;;;;;5101762;28;20212;-72
2023/04/04 04:57:51;;;;;;;2.70;2.10;;;;;;;;;;5101485;28;20225;-71
2023/04/04 05:00:21;;;;;;;5.50;2.47;;;;;;;;;;5101015;28;20253;-71
2023/04/04 05:02:48;;;;;;;2.90;2.50;;;;;;;;;;5100986;28;20215;-71
2023/04/04 05:05:17;;;;;;;3.03;2.13;;;;;;;;;;5095736;28;20206;-71
2023/04/04 05:07:45;;;;;;;2.77;2.53;;;;;;;;;;5101421;28;20198;-71
2023/04/04 05:10:15;;;;;;;2.93;2.70;;;;;;;;;;5101095;28;20775;-66
2023/04/04 05:12:43;;;;;;;4.83;2.00;;;;;;;;;;5101084;28;20547;-67
2023/04/04 05:15:11;;;;;;;2.60;2.40;;;;;;;;;;5099447;28;20740;-65
2023/04/04 05:17:40;;;;;;;3.70;2.27;;;;;;;;;;5101270;28;20229;-65
2023/04/04 05:20:08;;;;;;;1.93;1.83;;;;;;;;;;5101102;28;20603;-66
2023/04/04 05:22:36;;;;;;;3.03;2.07;;;;;;;;;;5101156;28;20254;-65
2023/04/04 05:25:05;;;;;;;3.13;1.73;;;;;;;;;;5101088;28;20198;-68
2023/04/04 05:27:34;;;;;;;2.73;2.20;;;;;;;;;;5100992;28;20198;-66
2023/04/04 05:30:02;;;;;;;3.27;2.10;;;;;;;;;;5100991;28;20501;-65
2023/04/04 05:32:31;;;;;;;2.40;2.20;;;;;;;;;;5100741;28;20467;-67
2023/04/04 05:34:59;;;;;;;2.87;2.27;;;;;;;;;;5101115;28;20205;-67
2023/04/04 05:37:27;;;;;;;1.93;1.70;;;;;;;;;;5100984;28;20489;-67
2023/04/04 05:39:56;;;;;;;1.90;1.80;;;;;;;;;;5099136;28;20486;-67
2023/04/04 05:42:24;;;;;;;10.63;5.20;;;;;;;;;;5100772;28;20454;-67
2023/04/04 05:44:53;;;;;;;2.53;2.33;;;;;;;;;;5100910;28;20206;-66
2023/04/04 05:47:21;;;;;;;2.87;2.40;;;;;;;;;;5100453;28;20198;-66
2023/04/04 05:49:49;;;;;;;2.50;2.30;;;;;;;;;;5095000;28;20480;-66
2023/04/04 05:52:17;;;;;;;3.00;2.20;;;;;;;;;;5095862;28;20485;-66
2023/04/04 05:54:46;;;;;;;2.27;2.07;;;;;;;;;;5100529;28;20201;-67
2023/04/04 05:57:14;;;;;;;2.30;1.80;;;;;;;;;;5100128;28;20708;-66
2023/04/04 05:59:42;;;;;;;2.20;1.93;;;;;;;;;;5099747;28;20225;-66
2023/04/04 06:02:12;;;;;;;3.17;2.20;;;;;;;;;;5096212;28;20201;-66
2023/04/04 06:04:40;;;;;;;2.50;2.17;;;;;;;;;;5100527;28;20240;-66
2023/04/04 06:07:08;;;;;;;3.17;2.00;;;;;;;;;;5094911;28;20301;-66
2023/04/04 06:09:36;;;;;;;2.17;1.97;;;;;;;;;;5100156;28;20233;-66
2023/04/04 06:12:04;;;;;;;2.57;1.97;;;;;;;;;;5100064;28;20244;-67
2023/04/04 06:14:32;;;;;;;3.87;2.20;;;;;;;;;;5099963;28;20242;-66
2023/04/04 06:17:00;;;;;;;2.03;1.93;;;;;;;;;;5099491;28;20362;-66
2023/04/04 06:19:29;;;;;;;2.60;2.40;;;;;;;;;;5088623;28;20254;-66
2023/04/04 06:22:06;;;;;;;4.47;2.27;;;;;;;;;;5099020;28;20209;-66
2023/04/04 06:24:34;;;;;;;2.17;2.00;;;;;;;;;;5099479;28;20442;-67
2023/04/04 06:27:04;;;;;;;2.37;2.10;;;;;;;;;;5079496;28;20441;-66
2023/04/04 06:29:33;;;;;;;4.03;2.10;;;;;;;;;;5079359;28;20490;-66
2023/04/04 06:32:01;;;;;;;5.27;2.00;;;;;;;;;;5087499;28;20197;-66
2023/04/04 06:34:31;;;;;;;2.63;2.20;;;;;;;;;;5084277;28;20444;-66
2023/04/04 06:36:59;;;;;;;7.33;2.57;;;;;;;;;;5094166;28;20228;-66
2023/04/04 06:39:28;;;;;;;2.27;2.07;;;;;;;;;;5099238;28;20243;-66
2023/04/04 06:41:56;;;;;;;3.07;2.33;;;;;;;;;;5099441;28;20210;-66
2023/04/04 06:44:25;;;;;;;3.87;2.03;;;;;;;;;;5099386;28;20209;-66
2023/04/04 06:46:53;;;;;;;2.80;2.33;;;;;;;;;;5099302;28;20293;-66
2023/04/04 06:49:21;;;;;;;3.30;1.93;;;;;;;;;;5099227;28;20482;-66
2023/04/04 06:51:51;;;;;;;3.67;2.10;;;;;;;;;;5099540;28;20508;-66
2023/04/04 06:54:19;;;;;;;2.43;2.23;;;;;;;;;;5098935;28;20205;-66
2023/04/04 06:56:47;;;;;;;6.17;2.23;;;;;;;;;;5098136;28;20535;-67
2023/04/04 06:59:16;;;;;;;2.90;2.60;;;;;;;;;;5099257;28;20524;-66
2023/04/04 07:01:44;;;;;;;4.23;2.60;;;;;;;;;;5098609;28;20206;-66
2023/04/04 07:04:12;;;;;;;2.97;2.50;;;;;;;;;;5099247;28;20296;-67
2023/04/04 07:06:41;;;;;;;2.23;2.07;;;;;;;;;;5099196;28;20444;-67
2023/04/04 07:09:10;;;;;;;4.30;2.53;;;;;;;;;;5098485;28;20633;-67
2023/04/04 07:11:55;;;;;;;2.00;1.90;;;;;;;;;;5095043;28;20216;-66
2023/04/04 07:14:24;;;;;;;3.57;2.10;;;;;;;;;;5098749;28;20229;-66
2023/04/04 07:16:53;;;;;;;2.17;1.97;;;;;;;;;;5098411;28;20618;-66
2023/04/04 07:19:27;;;;;;;2.63;1.93;;;;;;;;;;5099071;28;20225;-66
2023/04/04 07:21:55;;;;;;;4.53;2.27;;;;;;;;;;5098710;28;20530;-66
2023/04/04 07:24:25;;;;;;;5.37;3.40;;;;;;;;;;5098920;28;20244;-66
2023/04/04 07:26:53;;;;;;;4.83;1.90;;;;;;;;;;5092606;28;20298;-66
2023/04/04 07:29:21;;;;;;;5.30;1.80;;;;;;;;;;5091236;28;20237;-66
2023/04/04 07:31:49;;;;;;;3.73;1.77;;;;;;;;;;5098091;28;20618;-66
2023/04/04 07:34:18;;;;;;;6.00;2.10;;;;;;;;;;5098836;28;20292;-66
2023/04/04 07:36:47;;;;;;;2.00;1.80;;;;;;;;;;5098516;28;20668;-66
2023/04/04 07:39:15;;;;;;;3.07;2.20;;;;;;;;;;5098155;28;20271;-66
2023/04/04 07:41:45;;;;;;;2.30;2.10;;;;;;;;;;5098541;28;20205;-66
2023/04/04 07:44:13;;;;;;;2.20;2.00;;;;;;;;;;5091642;28;20212;-65
2023/04/04 07:46:47;;;;;;;2.10;2.00;;;;;;;;;;5098491;28;20251;-65
2023/04/04 07:49:33;;;;;;;5.13;2.30;;;;;;;;;;5097918;28;20253;-66
2023/04/04 07:52:02;;;;;;;3.80;2.27;;;;;;;;;;5086703;28;20251;-66
2023/04/04 07:54:30;;;;;;;2.87;2.27;;;;;;;;;;5098807;28;20205;-66
2023/04/04 07:57:00;;;;;;;3.70;2.20;;;;;;;;;;5096816;28;20692;-66
2023/04/04 07:59:28;;;;;;;3.07;2.07;;;;;;;;;;5097878;28;20276;-66
2023/04/04 08:01:56;;;;;;;3.13;1.97;;;;;;;;;;5090824;28;20212;-66
2023/04/04 08:04:24;;;;;;;2.63;2.23;;;;;;;;;;5097946;28;20231;-66
2023/04/04 08:06:52;;;;;;;2.10;1.80;;;;;;;;;;5098062;28;20206;-67
2023/04/04 08:09:20;;;;;;;7.73;2.30;;;;;;;;;;5096024;28;20539;-66
2023/04/04 08:11:48;;;;;;;2.73;2.53;;;;;;;;;;5095297;28;20201;-66
2023/04/04 08:14:18;;;;;;;3.63;2.10;;;;;;;;;;5097915;28;20260;-66
2023/04/04 08:16:46;;;;;;;5.93;2.43;;;;;;;;;;5097672;28;20205;-66
2023/04/04 08:19:15;;;;;;;5.17;2.10;;;;;;;;;;5096714;28;20316;-66
2023/04/04 08:21:43;;;;;;;2.93;2.03;;;;;;;;;;5097532;28;20906;-66
2023/04/04 08:24:11;;;;;;;1.87;1.77;;;;;;;;;;5097296;28;20213;-66
2023/04/04 08:26:39;;;;;;;2.33;1.80;;;;;;;;;;5097789;28;20209;-66
2023/04/04 08:29:10;;;;;;;1.90;1.80;;;;;;;;;;5097897;28;20284;-66
2023/04/04 08:31:40;;;;;;;2.00;1.90;;;;;;;;;;5097359;28;20584;-66
2023/04/04 08:34:08;;;;;;;2.43;2.23;;;;;;;;;;5097404;28;20672;-66
2023/04/04 08:36:36;;;;;;;4.83;1.97;;;;;;;;;;5097244;28;20231;-66
2023/04/04 08:39:05;;;;;;;5.00;2.00;;;;;;;;;;5097302;28;20225;-66
2023/04/04 08:41:34;;;;;;;2.90;2.43;;;;;;;;;;5097860;28;20216;-66
2023/04/04 08:44:03;;;;;;;2.27;2.07;;;;;;;;;;5097584;28;20208;-66
2023/04/04 08:46:31;;;;;;;3.83;2.30;;;;;;;;;;5097470;28;20255;-66
2023/04/04 08:49:03;;;;;;;2.63;2.40;;;;;;;;;;5097398;28;20212;-64
2023/04/04 08:51:31;;;;;;;3.73;2.30;;;;;;;;;;5094590;28;20213;-66
2023/04/04 08:54:01;;;;;;;2.33;2.23;;;;;;;;;;5092133;28;20237;-65
2023/04/04 08:56:29;;;;;;;5.00;2.03;;;;;;;;;;5096462;28;20284;-66
2023/04/04 08:58:58;;;;;;;2.23;2.03;;;;;;;;;;5096917;28;20255;-65
2023/04/04 09:01:28;;;;;;;2.37;1.83;;;;;;;;;;5097412;28;20216;-65
2023/04/04 09:03:57;;;;;;;4.50;2.07;;;;;;;;;;5097306;28;20229;-65
2023/04/04 09:06:26;;;;;;;2.57;2.00;;;;;;;;;;5097530;28;20301;-65
2023/04/04 09:08:58;;;;;;;2.53;2.33;;;;;;;;;;5094994;28;20210;-66
2023/04/04 09:11:27;;;;;;;2.83;2.47;;;;;;;;;;5097382;28;20305;-66
2023/04/04 09:13:56;;;;;;;3.40;2.23;;;;;;;;;;5097053;28;20212;-66
2023/04/04 09:16:24;;;;;;;2.47;1.80;;;;;;;;;;5097328;28;20241;-66
2023/04/04 09:18:52;;;;;;;2.10;1.90;;;;;;;;;;5097200;28;20225;-65
2023/04/04 09:21:20;;;;;;;3.07;2.20;;;;;;;;;;5097503;28;20232;-66
2023/04/04 09:23:57;;;;;;;2.43;2.23;;;;;;;;;;5097274;28;20209;-66
2023/04/04 09:26:26;;;;;;;3.07;2.20;;;;;;;;;;5088156;28;20285;-65
2023/04/04 09:28:54;;;;;;;2.57;2.03;;;;;;;;;;5097119;28;20258;-64
2023/04/04 09:31:24;;;;;;;3.53;2.17;;;;;;;;;;5096758;28;20792;-65
2023/04/04 09:33:52;;;;;;;2.77;2.50;;;;;;;;;;5097427;28;20209;-64
2023/04/04 09:36:20;;;;;;;5.07;2.40;;;;;;;;;;5099553;28;20206;-64
2023/04/04 09:38:53;;;;;;;2.90;2.13;;;;;;;;;;5100881;28;20321;-66
2023/04/04 09:41:21;;;;;;;2.60;2.10;;;;;;;;;;5099822;28;20229;-66
2023/04/04 09:43:51;;;;;;;1.90;1.80;;;;;;;;;;5092782;28;20309;-66
2023/04/04 09:46:20;;;;;;;2.40;2.13;;;;;;;;;;5100282;28;20628;-66
2023/04/04 09:48:49;;;;;;;2.03;1.87;;;;;;;;;;5100542;28;20206;-66
2023/04/04 09:51:17;;;;;;;2.20;2.10;;;;;;;;;;5096385;28;20221;-66
2023/04/04 09:53:47;;;;;;;2.20;1.97;;;;;;;;;;5093433;28;20201;-64
2023/04/04 09:56:17;;;;;;;3.27;2.10;;;;;;;;;;5099511;28;20208;-65
2023/04/04 09:58:46;;;;;;;3.30;2.20;;;;;;;;;;5099850;28;20228;-64
2023/04/04 10:01:30;;;;;;;2.33;2.13;;;;;;;;;;5096245;28;20205;-64
2023/04/04 10:03:59;;;;;;;2.27;2.07;;;;;;;;;;5098889;28;20302;-65
2023/04/04 10:06:27;;;;;;;3.10;2.13;;;;;;;;;;5099059;28;20225;-64
2023/04/04 10:08:57;;;;;;;4.10;2.87;;;;;;;;;;5098195;28;20194;-65
2023/04/04 10:11:31;;;;;;;5.97;3.50;;;;;;;;;;5099344;28;20232;-65
2023/04/04 10:13:59;;;;;;;3.40;2.53;;;;;;;;;;5096639;28;20209;-66
2023/04/04 10:16:31;;;;;;;2.97;2.73;;;;;;;;;;5095863;28;20197;-64
2023/04/04 10:19:00;;;;;;;2.20;2.03;;;;;;;;;;5097059;28;20221;-65
2023/04/04 10:21:28;;;;;;;3.03;2.40;;;;;;;;;;5099781;28;20211;-65
2023/04/04 10:23:58;;;;;;;2.50;2.30;;;;;;;;;;5100326;28;20209;-66
2023/04/04 10:26:26;;;;;;;4.40;2.67;;;;;;;;;;5095058;28;20233;-66
2023/04/04 10:28:56;;;;;;;3.13;2.40;;;;;;;;;;5099925;28;20259;-66
2023/04/04 10:31:26;;;;;;;2.97;2.50;;;;;;;;;;5099678;28;20239;-66
2023/04/04 10:34:00;;;;;;;2.47;2.20;;;;;;;;;;5099787;28;20665;-66
2023/04/04 10:36:30;;;;;;;2.40;2.20;;;;;;;;;;5092440;28;20280;-64
2023/04/04 10:39:03;;;;;;;2.30;2.03;;;;;;;;;;5097972;28;20584;-64
2023/04/04 10:41:32;;;;;;;3.07;2.10;;;;;;;;;;5100006;28;20269;-64
2023/04/04 10:44:17;;;;;;;2.13;1.93;;;;;;;;;;5099994;28;20210;-65
2023/04/04 10:46:47;;;;;;;3.30;2.37;;;;;;;;;;5099084;28;20258;-65
2023/04/04 10:49:15;;;;;;;2.60;2.10;;;;;;;;;;5099562;28;20223;-65
2023/04/04 10:51:43;;;;;;;2.57;2.37;;;;;;;;;;5083911;28;20264;-65
2023/04/04 10:54:23;;;;;;;3.03;2.50;;;;;;;;;;5079981;28;20233;-66
2023/04/04 10:56:52;;;;;;;2.23;2.03;;;;;;;;;;5095739;28;20255;-66
2023/04/04 10:59:20;;;;;;;3.70;2.37;;;;;;;;;;5099430;28;20229;-66
2023/04/04 11:01:51;;;;;;;3.30;2.27;;;;;;;;;;5098912;28;20809;-66
2023/04/04 11:04:20;;;;;;;3.80;2.10;;;;;;;;;;5099168;28;20213;-65
2023/04/04 11:07:07;;;;;;;3.60;2.07;;;;;;;;;;5099162;28;20210;-65
2023/04/04 11:09:51;;;;;;;3.60;2.40;;;;;;;;;;5096056;28;20763;-65
2023/04/04 11:12:26;;;;;;;2.77;2.03;;;;;;;;;;5082265;28;20740;-65
2023/04/04 11:14:55;;;;;;;2.77;2.57;;;;;;;;;;5098094;28;20599;-67
2023/04/04 11:17:41;;;;;;;3.43;2.40;;;;;;;;;;5098420;28;20237;-67
2023/04/04 11:20:11;;;;;;;2.47;2.27;;;;;;;;;;5098444;28;20230;-67
2023/04/04 11:22:41;;;;;;;3.70;2.20;;;;;;;;;;5098776;28;20209;-66
2023/04/04 11:25:28;;;;;;;1.97;1.87;;;;;;;;;;5099068;28;20209;-66
2023/04/04 11:27:56;;;;;;;2.47;2.13;;;;;;;;;;5097090;28;20205;-66
2023/04/04 11:30:25;;;;;;;2.30;2.00;;;;;;;;;;5083706;28;20291;-66
2023/04/04 11:32:56;;;;;;;4.20;2.37;;;;;;;;;;5098863;28;20240;-66
2023/04/04 11:35:37;;;;;;;3.83;2.20;;;;;;;;;;5098717;28;20217;-66
2023/04/04 11:38:12;;;;;;;3.53;2.60;;;;;;;;;;5098808;28;20308;-67
2023/04/04 11:40:40;;;;;;;6.73;2.50;;;;;;;;;;5098328;28;20225;-66
2023/04/04 11:43:09;;;;;;;4.40;2.57;;;;;;;;;;5098478;28;20575;-67
2023/04/04 11:45:38;;;;;;;3.50;2.17;;;;;;;;;;5094296;28;20232;-67
2023/04/04 11:48:09;;;;;;;3.17;2.27;;;;;;;;;;5084930;28;20260;-67
2023/04/04 11:50:40;;;;;;;4.27;2.50;;;;;;;;;;5092678;28;20253;-68
2023/04/04 11:53:08;;;;;;;3.80;2.60;;;;;;;;;;5098103;28;20266;-67
2023/04/04 11:55:41;;;;;;;2.80;2.13;;;;;;;;;;5098271;28;20221;-68
2023/04/04 11:58:10;;;;;;;2.43;2.13;;;;;;;;;;5097693;28;20228;-64
2023/04/04 12:00:40;;;;;;;2.20;2.00;;;;;;;;;;5097501;28;20225;-64
2023/04/04 12:03:10;;;;;;;2.87;2.67;;;;;;;;;;5097583;28;20215;-64
2023/04/04 12:05:40;;;;;;;4.47;2.30;;;;;;;;;;5094264;28;20730;-64
2023/04/04 12:08:10;;;;;;;4.27;2.30;;;;;;;;;;5092381;28;20201;-63
2023/04/04 12:10:39;;;;;;;3.33;2.30;;;;;;;;;;5096005;28;20224;-64
2023/04/04 12:13:07;;;;;;;2.40;2.20;;;;;;;;;;5087935;28;20208;-64
2023/04/04 12:15:36;;;;;;;4.00;2.30;;;;;;;;;;5079979;28;20242;-64
2023/04/04 12:18:06;;;;;;;5.03;2.70;;;;;;;;;;5091087;28;20213;-64
2023/04/04 12:20:37;;;;;;;2.40;2.10;;;;;;;;;;5097841;28;20324;-66
2023/04/04 12:23:08;;;;;;;4.07;2.27;;;;;;;;;;5095292;28;20280;-66
2023/04/04 12:25:38;;;;;;;2.20;2.00;;;;;;;;;;5097772;28;20293;-66
2023/04/04 12:28:07;;;;;;;3.70;2.10;;;;;;;;;;5097883;28;20211;-65
2023/04/04 12:30:35;;;;;;;2.40;2.20;;;;;;;;;;5093460;28;20664;-66
2023/04/04 12:33:03;;;;;;;2.43;2.00;;;;;;;;;;5089805;28;20248;-65
2023/04/04 12:35:32;;;;;;;2.30;2.10;;;;;;;;;;5097536;28;20236;-65
2023/04/04 12:38:01;;;;;;;2.30;2.10;;;;;;;;;;5097768;28;20205;-66
2023/04/04 12:40:31;;;;;;;2.40;2.20;;;;;;;;;;5097273;28;20699;-66
2023/04/04 12:42:59;;;;;;;3.17;1.90;;;;;;;;;;5097858;28;20206;-66
2023/04/04 12:45:28;;;;;;;5.17;2.23;;;;;;;;;;5097433;28;20274;-66
2023/04/04 12:47:57;;;;;;;3.23;2.17;;;;;;;;;;5097725;28;20205;-66
2023/04/04 12:50:28;;;;;;;2.10;1.97;;;;;;;;;;5090631;28;20225;-66
2023/04/04 12:52:56;;;;;;;1.93;1.77;;;;;;;;;;5087745;28;20229;-66
2023/04/04 12:55:47;;;;;;;4.63;2.73;;;;;;;;;;5084514;28;20213;-66
2023/04/04 12:58:16;;;;;;;4.93;2.30;;;;;;;;;;5097503;28;20233;-65
2023/04/04 13:00:44;;;;;;;4.50;1.90;;;;;;;;;;5093209;28;20257;-65
2023/04/04 13:03:13;;;;;;;2.60;2.40;;;;;;;;;;5086925;28;20217;-66
2023/04/04 13:05:42;;;;;;;2.60;2.37;;;;;;;;;;5088427;28;20198;-66
2023/04/04 13:08:11;;;;;;;2.03;1.90;;;;;;;;;;5081271;28;20233;-66
2023/04/04 13:11:01;;;;;;;3.17;2.27;;;;;;;;;;5097741;28;20639;-66
2023/04/04 13:13:34;;;;;;;2.30;2.00;;;;;;;;;;5101611;28;20201;-66
2023/04/04 13:16:02;;;;;;;2.30;2.10;;;;;;;;;;5100646;28;20237;-66
2023/04/04 13:18:36;;;;;;;2.90;1.87;;;;;;;;;;5101707;28;20265;-66
2023/04/04 13:21:05;;;;;;;2.60;2.40;;;;;;;;;;5099898;28;20722;-66
2023/04/04 13:23:34;;;;;;;2.13;1.93;;;;;;;;;;5098335;28;20198;-66
2023/04/04 13:26:04;;;;;;;2.33;2.10;;;;;;;;;;5097093;28;20211;-66
2023/04/04 13:28:32;;;;;;;3.33;2.17;;;;;;;;;;5099908;28;20255;-65
2023/04/04 13:31:02;;;;;;;2.07;1.90;;;;;;;;;;5095978;28;20643;-66
2023/04/04 13:33:30;;;;;;;2.43;1.80;;;;;;;;;;5095548;28;20564;-66
2023/04/04 13:35:58;;;;;;;2.50;2.00;;;;;;;;;;5096910;28;20224;-66
2023/04/04 13:38:26;;;;;;;2.47;1.80;;;;;;;;;;5099332;28;20201;-66
2023/04/04 13:40:54;;;;;;;3.13;2.10;;;;;;;;;;5099497;28;20292;-66
2023/04/04 13:43:24;;;;;;;2.67;2.17;;;;;;;;;;5100033;28;20219;-66
2023/04/04 13:45:54;;;;;;;2.10;1.90;;;;;;;;;;5099593;28;20209;-66
2023/04/04 13:48:22;;;;;;;2.77;2.40;;;;;;;;;;5095271;28;20582;-65
2023/04/04 13:50:51;;;;;;;2.53;2.10;;;;;;;;;;5097513;28;20219;-66
2023/04/04 13:53:20;;;;;;;4.70;1.97;;;;;;;;;;5100570;28;20209;-66
2023/04/04 13:55:48;;;;;;;5.67;2.30;;;;;;;;;;5100481;28;20692;-66
2023/04/04 13:58:19;;;;;;;1.90;1.80;;;;;;;;;;5100661;28;20229;-66
2023/04/04 14:00:49;;;;;;;1.83;1.60;;;;;;;;;;5094860;28;20669;-66
2023/04/04 14:03:17;;;;;;;4.83;2.10;;;;;;;;;;5100336;28;20671;-66
2023/04/04 14:05:45;;;;;;;2.03;1.70;;;;;;;;;;5100398;28;20213;-66
2023/04/04 14:08:13;;;;;;;1.80;1.70;;;;;;;;;;5100549;28;20239;-66
2023/04/04 14:10:41;;;;;;;2.80;1.77;;;;;;;;;;5100479;28;20221;-66
2023/04/04 14:13:09;;;;;;;1.73;1.63;;;;;;;;;;5100458;28;20285;-66
2023/04/04 14:15:38;;;;;;;1.77;1.57;;;;;;;;;;5099952;28;20277;-66
2023/04/04 14:18:08;;;;;;;3.43;1.90;;;;;;;;;;5100270;28;20213;-66
2023/04/04 14:20:37;;;;;;;2.10;1.90;;;;;;;;;;5093792;28;20242;-66
2023/04/04 14:23:05;;;;;;;3.20;1.60;;;;;;;;;;5086227;28;20613;-66
2023/04/04 14:25:33;;;;;;;2.80;1.97;;;;;;;;;;5100131;28;20205;-66
2023/04/04 14:28:01;;;;;;;1.77;1.67;;;;;;;;;;5099900;28;20713;-66
2023/04/04 14:30:29;;;;;;;2.03;1.90;;;;;;;;;;5099257;28;20747;-66
2023/04/04 14:32:57;;;;;;;1.80;1.70;;;;;;;;;;5097202;28;20528;-66
2023/04/04 14:35:27;;;;;;;2.07;1.87;;;;;;;;;;5094160;28;20693;-65
2023/04/04 14:37:55;;;;;;;2.80;1.90;;;;;;;;;;5100004;28;20255;-65
2023/04/04 14:40:23;;;;;;;3.13;1.80;;;;;;;;;;5099777;28;20225;-66
2023/04/04 14:42:51;;;;;;;2.10;1.70;;;;;;;;;;5099234;28;20229;-65
2023/04/04 14:45:19;;;;;;;3.93;1.90;;;;;;;;;;5090026;28;20281;-65
2023/04/04 14:47:47;;;;;;;2.20;2.10;;;;;;;;;;5086536;28;20241;-65
2023/04/04 14:50:16;;;;;;;2.60;1.83;;;;;;;;;;5096645;28;20255;-66
2023/04/04 14:52:46;;;;;;;1.70;1.60;;;;;;;;;;5084068;28;20193;-65
2023/04/04 14:55:15;;;;;;;2.30;1.70;;;;;;;;;;5099155;28;20268;-65